Time;durP1;ratioP1;P1;durP2;ratioP2;P2;SDS_P1;SDS_P2;PMS_P1;PMS_P2;Temp;Humidity;BMP_temperature;BMP_pressure;BME280_temperature;BME280_humidity;BME280_pressure;Samples;Min_cycle;Max_cycle;Signal;HPM_P1;HPM_P2
2022/08/23 00:01:53;;;;;;;4.28;1.92;;;22.90;66.10;;;;;;4973855;28;20203;-73
2022/08/23 00:04:25;;;;;;;6.15;1.58;;;22.80;65.90;;;;;;4992258;28;20168;-73
2022/08/23 00:06:55;;;;;;;2.67;1.60;;;22.80;66.20;;;;;;4975478;28;20200;-74
2022/08/23 00:09:23;;;;;;;3.17;1.83;;;22.70;66.40;;;;;;4977569;28;20194;-73
2022/08/23 00:11:53;;;;;;;4.47;1.98;;;22.60;66.30;;;;;;4989483;28;20275;-73
2022/08/23 00:14:21;;;;;;;2.63;1.73;;;22.70;66.70;;;;;;4988552;28;20200;-73
2022/08/23 00:16:47;;;;;;;12.90;2.15;;;22.60;67.00;;;;;;4976115;28;20188;-73
2022/08/23 00:19:15;;;;;;;3.17;1.65;;;22.60;67.00;;;;;;4975064;28;20259;-74
2022/08/23 00:21:42;;;;;;;6.63;1.80;;;22.60;67.30;;;;;;4991230;28;20168;-74
2022/08/23 00:24:10;;;;;;;2.35;1.98;;;22.60;67.40;;;;;;4975552;28;20192;-70
2022/08/23 00:27:03;;;;;;;3.65;1.85;;;22.50;67.50;;;;;;4976111;28;20215;-73
2022/08/23 00:29:40;;;;;;;4.45;2.20;;;22.40;68.60;;;;;;4974458;28;20259;-74
2022/08/23 00:32:10;;;;;;;5.38;2.00;;;22.40;68.00;;;;;;4989736;28;20175;-73
2022/08/23 00:34:41;;;;;;;3.13;1.73;;;22.40;68.20;;;;;;4976313;28;20187;-74
2022/08/23 00:37:11;;;;;;;4.35;1.80;;;22.30;68.30;;;;;;4974563;28;20240;-73
2022/08/23 00:39:39;;;;;;;3.17;1.67;;;22.30;68.20;;;;;;4991985;28;20211;-73
2022/08/23 00:48:18;;;;;;;2.10;1.50;;;22.20;69.10;;;;;;4968660;28;20202;-72
2022/08/23 00:51:09;;;;;;;2.78;1.70;;;22.10;68.50;;;;;;4971289;28;20191;-73
2022/08/23 00:53:41;;;;;;;3.10;1.90;;;22.10;70.20;;;;;;4968863;28;20184;-73
2022/08/23 00:56:11;;;;;;;2.83;1.77;;;22.00;69.30;;;;;;4968911;28;20176;-73
2022/08/23 00:58:37;;;;;;;3.00;1.63;;;22.00;69.50;;;;;;4989735;28;20192;-73
2022/08/23 01:01:06;;;;;;;2.15;1.80;;;21.90;69.40;;;;;;4991605;28;20172;-73
2022/08/23 01:03:36;;;;;;;1.73;1.35;;;21.90;70.00;;;;;;4975783;28;20243;-75
2022/08/23 01:06:31;;;;;;;3.50;1.73;;;21.80;70.10;;;;;;4981199;28;20219;-73
2022/08/23 01:09:12;;;;;;;2.88;1.55;;;21.80;71.50;;;;;;4964126;28;20215;-73
2022/08/23 01:11:56;;;;;;;3.95;1.70;;;21.70;70.70;;;;;;4975983;28;20200;-73
2022/08/23 01:14:46;;;;;;;3.90;2.00;;;21.70;71.50;;;;;;4985938;28;20188;-73
2022/08/23 01:17:32;;;;;;;2.42;1.63;;;21.70;71.90;;;;;;4989303;28;20247;-72
2022/08/23 01:20:07;;;;;;;3.13;1.80;;;21.70;71.10;;;;;;4959512;28;20192;-72
2022/08/23 01:22:35;;;;;;;3.78;1.60;;;21.60;71.70;;;;;;4972498;28;20175;-72
2022/08/23 01:25:04;;;;;;;3.17;1.77;;;21.60;71.00;;;;;;4974336;28;20238;-72
2022/08/23 01:27:29;;;;;;;2.88;1.60;;;21.60;71.30;;;;;;4990949;28;20223;-85
2022/08/23 01:29:55;;;;;;;2.38;1.75;;;21.60;71.40;;;;;;4988079;28;20212;-85
2022/08/23 01:32:21;;;;;;;3.97;1.90;;;21.50;71.50;;;;;;4989562;28;20203;-87
2022/08/23 01:34:47;;;;;;;3.42;2.08;;;21.50;72.00;;;;;;4974628;28;20270;-87
2022/08/23 01:37:13;;;;;;;2.47;1.80;;;21.40;72.00;;;;;;4978307;28;20281;-85
2022/08/23 01:39:39;;;;;;;3.08;2.00;;;21.40;72.30;;;;;;4985506;28;20210;-86
2022/08/23 01:42:06;;;;;;;3.33;2.10;;;21.40;72.50;;;;;;4966495;28;20180;-84
2022/08/23 01:44:33;;;;;;;2.40;1.70;;;21.40;72.80;;;;;;4975685;28;20199;-84
2022/08/23 01:47:05;;;;;;;3.20;1.60;;;21.40;73.00;;;;;;4976732;28;20218;-85
2022/08/23 01:49:33;;;;;;;4.95;2.00;;;21.40;73.50;;;;;;4972943;28;20180;-82
2022/08/23 01:51:59;;;;;;;3.53;1.88;;;21.30;73.50;;;;;;4990546;28;20199;-83
2022/08/23 01:54:28;;;;;;;2.60;1.63;;;21.30;73.40;;;;;;4971533;28;20175;-83
2022/08/23 01:56:53;;;;;;;3.17;1.70;;;21.30;73.80;;;;;;4974510;28;20485;-83
2022/08/23 01:59:19;;;;;;;2.58;1.63;;;21.30;73.50;;;;;;4972316;28;20259;-83
2022/08/23 02:01:47;;;;;;;3.90;1.80;;;21.30;73.50;;;;;;4989452;28;20214;-83
2022/08/23 02:04:15;;;;;;;3.15;2.10;;;21.30;73.60;;;;;;4973500;28;20280;-82
2022/08/23 02:06:41;;;;;;;2.42;1.63;;;21.30;73.70;;;;;;4976884;28;20267;-83
2022/08/23 02:09:06;;;;;;;2.20;1.80;;;21.30;73.90;;;;;;4967054;28;20295;-84
2022/08/23 02:11:38;;;;;;;2.03;1.55;;;21.30;74.30;;;;;;4990043;28;20227;-85
2022/08/23 02:14:15;;;;;;;4.22;1.67;;;21.30;75.00;;;;;;4973432;28;20191;-82
2022/08/23 02:16:45;;;;;;;2.67;1.70;;;21.20;75.10;;;;;;4982734;28;20283;-83
2022/08/23 02:19:12;;;;;;;3.05;1.60;;;21.20;74.80;;;;;;4976433;28;20294;-77
2022/08/23 02:21:40;;;;;;;3.78;1.70;;;21.20;74.60;;;;;;4993382;28;20200;-84
2022/08/23 02:24:11;;;;;;;3.10;1.80;;;21.10;74.60;;;;;;4975392;28;20176;-84
2022/08/23 02:26:41;;;;;;;3.33;1.90;;;21.10;74.90;;;;;;4981127;28;20191;-82
2022/08/23 02:29:07;;;;;;;2.42;1.70;;;21.00;74.90;;;;;;4991384;28;20208;-83
2022/08/23 02:31:33;;;;;;;2.20;1.60;;;21.00;75.00;;;;;;4973927;28;20196;-81
2022/08/23 02:34:03;;;;;;;3.10;1.95;;;21.00;75.40;;;;;;4986519;28;20184;-84
2022/08/23 02:36:30;;;;;;;2.38;1.90;;;20.90;75.70;;;;;;4969056;28;20243;-84
2022/08/23 02:38:56;;;;;;;3.47;1.95;;;20.90;75.80;;;;;;4980645;28;20240;-83
2022/08/23 02:41:22;;;;;;;2.70;1.70;;;20.90;75.90;;;;;;4976241;28;20182;-83
2022/08/23 02:43:52;;;;;;;3.65;1.95;;;20.80;76.00;;;;;;4980149;28;20180;-83
2022/08/23 02:46:21;;;;;;;2.60;1.80;;;20.70;76.80;;;;;;4979875;28;20184;-84
2022/08/23 02:48:47;;;;;;;2.30;1.80;;;20.70;76.60;;;;;;4976225;28;20204;-84
2022/08/23 02:51:16;;;;;;;2.08;1.60;;;20.70;77.00;;;;;;4973446;28;20184;-82
2022/08/23 02:53:42;;;;;;;2.80;1.80;;;20.70;77.30;;;;;;4985355;28;20260;-78
2022/08/23 02:56:09;;;;;;;3.08;2.08;;;20.60;77.50;;;;;;4983584;28;20232;-84
2022/08/23 02:58:35;;;;;;;3.30;1.70;;;20.50;77.80;;;;;;4979308;28;20203;-77
2022/08/23 03:01:03;;;;;;;2.30;1.92;;;20.50;77.90;;;;;;4973657;28;20172;-83
2022/08/23 03:03:31;;;;;;;2.88;1.70;;;20.50;78.70;;;;;;4973266;28;20176;-82
2022/08/23 03:05:59;;;;;;;3.13;1.90;;;20.40;78.50;;;;;;4990902;28;20187;-84
2022/08/23 03:08:25;;;;;;;3.58;1.80;;;20.40;79.10;;;;;;4980100;28;20207;-84
2022/08/23 03:10:53;;;;;;;3.55;2.00;;;20.40;79.50;;;;;;4973074;28;20180;-84
2022/08/23 03:13:22;;;;;;;4.50;1.90;;;20.40;81.00;;;;;;4964493;28;20204;-84
2022/08/23 03:15:47;;;;;;;3.35;1.73;;;20.30;80.80;;;;;;4992116;28;20184;-84
2022/08/23 03:18:13;;;;;;;2.90;1.92;;;20.30;80.90;;;;;;4975183;28;20196;-84
2022/08/23 03:20:40;;;;;;;4.57;2.15;;;20.30;81.20;;;;;;4994078;28;20204;-85
2022/08/23 03:23:07;;;;;;;3.33;2.00;;;20.30;81.70;;;;;;4979502;28;20184;-82
2022/08/23 03:25:33;;;;;;;2.95;1.80;;;20.30;81.70;;;;;;4985886;28;20175;-84
2022/08/23 03:28:03;;;;;;;2.55;1.80;;;20.30;81.90;;;;;;4990609;28;20196;-85
2022/08/23 03:30:29;;;;;;;5.85;1.92;;;20.30;82.60;;;;;;4978102;28;20274;-86
2022/08/23 03:32:54;;;;;;;2.47;1.90;;;20.30;82.20;;;;;;4976668;28;20188;-85
2022/08/23 03:35:22;;;;;;;4.50;2.80;;;20.30;82.30;;;;;;4977107;28;20513;-82
2022/08/23 03:37:52;;;;;;;5.60;4.10;;;20.30;82.80;;;;;;4992980;28;20321;-84
2022/08/23 03:40:18;;;;;;;5.35;3.15;;;20.30;83.00;;;;;;4976624;28;20192;-80
2022/08/23 03:42:43;;;;;;;3.97;3.05;;;20.30;83.10;;;;;;4979231;28;20183;-79
2022/08/23 03:45:09;;;;;;;5.05;3.63;;;20.30;83.30;;;;;;4992492;28;20230;-84
2022/08/23 03:47:35;;;;;;;9.82;6.00;;;20.20;83.40;;;;;;4976746;28;20176;-83
2022/08/23 03:50:01;;;;;;;5.40;4.35;;;20.20;83.60;;;;;;4974162;28;20177;-84
2022/08/23 03:52:29;;;;;;;4.53;3.60;;;20.20;83.90;;;;;;4974770;28;20275;-85
2022/08/23 03:54:57;;;;;;;3.75;2.83;;;20.20;84.10;;;;;;4977182;28;20184;-81
2022/08/23 03:57:25;;;;;;;4.03;3.20;;;20.20;84.80;;;;;;4976625;28;20323;-84
2022/08/23 03:59:51;;;;;;;5.03;4.05;;;20.20;85.10;;;;;;4980153;28;20252;-83
2022/08/23 04:02:17;;;;;;;4.00;3.47;;;20.10;84.70;;;;;;4984816;28;20196;-84
2022/08/23 04:04:42;;;;;;;5.38;4.32;;;20.10;84.90;;;;;;4974526;28;20187;-81
2022/08/23 04:07:11;;;;;;;4.45;3.50;;;20.10;85.10;;;;;;4992176;28;20260;-83
2022/08/23 04:09:39;;;;;;;4.80;3.67;;;20.10;85.80;;;;;;4976861;28;20175;-84
2022/08/23 04:12:04;;;;;;;4.43;2.60;;;20.10;86.10;;;;;;4977207;28;20223;-82
2022/08/23 04:14:34;;;;;;;3.42;2.50;;;20.00;85.80;;;;;;4992261;28;20180;-81
2022/08/23 04:17:00;;;;;;;3.20;2.30;;;20.00;86.00;;;;;;4976612;28;20244;-84
2022/08/23 04:19:25;;;;;;;3.28;2.25;;;20.00;86.60;;;;;;4977053;28;20279;-83
2022/08/23 04:21:51;;;;;;;2.95;2.38;;;20.00;87.10;;;;;;4977896;28;20196;-83
2022/08/23 04:24:19;;;;;;;5.25;2.72;;;19.90;87.30;;;;;;4973298;28;20231;-81
2022/08/23 04:26:45;;;;;;;4.45;2.38;;;19.90;88.30;;;;;;4975453;28;20168;-82
2022/08/23 04:29:15;;;;;;;3.10;2.38;;;19.90;88.10;;;;;;4975906;28;20175;-72
2022/08/23 04:31:44;;;;;;;3.28;2.40;;;19.90;88.50;;;;;;4990434;28;20250;-72
2022/08/23 04:34:12;;;;;;;5.57;3.95;;;19.80;88.70;;;;;;4972070;28;20179;-73
2022/08/23 04:36:41;;;;;;;5.00;3.50;;;19.80;89.70;;;;;;4972348;28;20203;-72
2022/08/23 04:39:10;;;;;;;3.90;3.25;;;19.80;90.10;;;;;;4977056;28;20203;-72
2022/08/23 04:44:20;;;;;;;4.53;2.63;;;19.80;90.10;;;;;;4973573;28;20195;-72
2022/08/23 04:46:51;;;;;;;4.05;2.55;;;19.80;90.10;;;;;;4990615;28;20242;-71
2022/08/23 04:49:24;;;;;;;4.53;2.28;;;19.80;90.60;;;;;;4988804;28;20270;-72
2022/08/23 04:51:49;;;;;;;3.03;2.30;;;19.80;90.70;;;;;;4973256;28;20230;-72
2022/08/23 04:54:18;;;;;;;3.22;2.15;;;19.80;90.50;;;;;;4977597;28;20283;-72
2022/08/23 04:56:43;;;;;;;2.75;1.98;;;19.80;90.90;;;;;;4973789;28;20191;-72
2022/08/23 04:59:11;;;;;;;3.95;2.00;;;19.80;90.80;;;;;;4975289;28;20188;-71
2022/08/23 05:01:38;;;;;;;3.38;2.20;;;19.80;90.80;;;;;;4980080;28;20303;-72
2022/08/23 05:04:07;;;;;;;4.10;2.10;;;19.80;90.90;;;;;;4982137;28;20259;-73
2022/08/23 05:06:32;;;;;;;3.10;1.70;;;19.80;91.10;;;;;;4993027;28;20206;-73
2022/08/23 05:09:00;;;;;;;3.85;2.20;;;19.80;91.20;;;;;;4992568;28;20184;-73
2022/08/23 05:11:27;;;;;;;3.83;2.13;;;19.80;91.40;;;;;;4974683;28;20268;-72
2022/08/23 05:13:52;;;;;;;4.05;2.00;;;19.80;91.60;;;;;;4970700;28;20180;-73
2022/08/23 05:16:18;;;;;;;3.55;2.30;;;19.80;91.70;;;;;;4968994;28;20192;-73
2022/08/23 05:18:44;;;;;;;2.95;1.90;;;19.80;91.80;;;;;;4973830;28;20282;-73
2022/08/23 05:21:16;;;;;;;3.50;2.42;;;19.80;92.00;;;;;;4991219;28;20186;-73
2022/08/23 05:23:42;;;;;;;4.50;2.67;;;19.90;93.20;;;;;;4970898;28;20239;-72
2022/08/23 05:26:10;;;;;;;3.00;2.35;;;19.80;92.70;;;;;;4985636;28;20176;-72
2022/08/23 05:28:43;;;;;;;3.95;2.67;;;19.80;92.70;;;;;;4980079;28;20184;-72
2022/08/23 05:31:18;;;;;;;3.65;2.30;;;19.80;93.40;;;;;;4989008;28;20208;-79
2022/08/23 05:33:47;;;;;;;3.70;2.53;;;19.80;93.40;;;;;;4986515;28;20189;-80
2022/08/23 05:36:17;;;;;;;3.20;2.50;;;19.90;93.30;;;;;;4983100;28;20200;-80
2022/08/23 05:38:45;;;;;;;2.97;2.15;;;19.90;93.40;;;;;;4967746;28;20222;-82
2022/08/23 05:41:12;;;;;;;4.40;2.10;;;19.90;93.30;;;;;;4977035;28;20225;-81
2022/08/23 05:43:43;;;;;;;3.47;2.17;;;19.90;93.60;;;;;;4975944;28;20172;-82
2022/08/23 05:46:17;;;;;;;3.22;2.08;;;19.90;93.90;;;;;;4975383;28;20180;-81
2022/08/23 05:48:49;;;;;;;4.25;2.03;;;20.00;94.00;;;;;;4975463;28;20183;-82
2022/08/23 05:51:19;;;;;;;3.05;2.03;;;20.00;94.10;;;;;;4974932;28;20204;-81
2022/08/23 05:53:46;;;;;;;3.03;2.00;;;20.00;94.00;;;;;;4972848;28;20176;-81
2022/08/23 05:56:12;;;;;;;2.85;2.00;;;20.10;93.90;;;;;;4975241;28;20291;-81
2022/08/23 05:58:37;;;;;;;3.70;2.20;;;20.10;93.80;;;;;;4975012;28;20283;-80
2022/08/23 06:01:03;;;;;;;3.65;2.17;;;20.10;93.70;;;;;;4976654;28;20207;-81
2022/08/23 06:03:33;;;;;;;3.38;1.92;;;20.10;93.80;;;;;;4996697;28;20215;-81
2022/08/23 06:06:00;;;;;;;5.28;2.33;;;20.10;93.70;;;;;;4979689;28;20176;-80
2022/08/23 06:08:28;;;;;;;4.60;2.17;;;20.20;93.80;;;;;;4980391;28;20267;-82
2022/08/23 06:11:07;;;;;;;3.58;2.10;;;20.20;93.80;;;;;;4995929;28;20231;-82
2022/08/23 06:13:34;;;;;;;2.38;1.90;;;20.30;94.30;;;;;;4977930;28;20269;-82
2022/08/23 06:16:04;;;;;;;3.25;2.10;;;20.30;93.80;;;;;;4977866;28;20207;-83
2022/08/23 06:18:29;;;;;;;5.95;2.25;;;20.30;93.90;;;;;;4977737;28;20207;-82
2022/08/23 06:21:03;;;;;;;4.43;2.40;;;20.40;93.90;;;;;;4979639;28;20172;-82
2022/08/23 06:23:29;;;;;;;3.65;2.58;;;20.40;94.30;;;;;;4999773;28;20340;-82
2022/08/23 06:26:02;;;;;;;4.95;2.42;;;20.40;93.90;;;;;;4997338;28;20179;-82
2022/08/23 06:28:32;;;;;;;3.50;2.20;;;20.50;94.00;;;;;;4979126;28;20211;-82
2022/08/23 06:30:58;;;;;;;6.28;2.35;;;20.50;94.00;;;;;;4979507;28;20176;-82
2022/08/23 06:33:25;;;;;;;4.95;2.60;;;20.50;93.90;;;;;;4979547;28;20182;-82
2022/08/23 06:36:01;;;;;;;3.95;2.30;;;20.50;94.00;;;;;;4979878;28;20184;-82
2022/08/23 06:38:27;;;;;;;5.07;2.30;;;20.60;94.60;;;;;;4986779;28;20295;-81
2022/08/23 06:40:59;;;;;;;3.30;2.15;;;20.60;94.10;;;;;;4980280;28;20239;-82
2022/08/23 06:43:25;;;;;;;2.97;2.38;;;20.60;94.50;;;;;;4981497;28;20172;-82
2022/08/23 06:45:51;;;;;;;4.32;2.17;;;20.60;94.40;;;;;;4980819;28;20175;-82
2022/08/23 06:48:19;;;;;;;3.78;2.35;;;20.70;94.40;;;;;;4995134;28;20180;-82
2022/08/23 06:50:47;;;;;;;4.00;2.22;;;20.70;94.40;;;;;;4972305;28;20263;-82
2022/08/23 06:53:14;;;;;;;4.38;2.25;;;20.70;94.50;;;;;;4980024;28;20298;-81
2022/08/23 06:55:42;;;;;;;3.75;2.20;;;20.70;94.40;;;;;;4981823;28;20192;-80
2022/08/23 06:58:10;;;;;;;2.42;2.10;;;20.80;94.30;;;;;;4980889;28;20176;-82
2022/08/23 07:00:38;;;;;;;5.32;2.28;;;20.80;94.20;;;;;;4995954;28;20180;-81
2022/08/23 07:03:04;;;;;;;3.50;2.15;;;20.90;94.10;;;;;;4979756;28;20187;-81
2022/08/23 07:05:30;;;;;;;3.42;2.10;;;20.90;94.10;;;;;;4978953;28;20200;-82
2022/08/23 07:07:56;;;;;;;4.78;2.20;;;21.00;94.10;;;;;;4979821;28;20176;-81
2022/08/23 07:10:23;;;;;;;3.33;2.25;;;21.00;94.00;;;;;;4979437;28;20196;-84
2022/08/23 07:12:49;;;;;;;3.72;2.40;;;21.10;94.00;;;;;;4987662;28;20184;-82
2022/08/23 07:15:15;;;;;;;3.03;2.10;;;21.10;94.00;;;;;;4979956;28;20207;-81
2022/08/23 07:17:43;;;;;;;4.43;2.35;;;21.20;94.10;;;;;;4976560;28;20191;-83
2022/08/23 07:20:09;;;;;;;3.58;2.20;;;21.20;94.10;;;;;;4982214;28;20200;-81
2022/08/23 07:22:37;;;;;;;3.35;2.30;;;21.30;94.00;;;;;;4978455;28;20172;-82
2022/08/23 07:25:05;;;;;;;3.38;1.98;;;21.40;94.10;;;;;;4995020;28;20208;-83
2022/08/23 07:27:33;;;;;;;3.30;2.20;;;21.40;94.00;;;;;;4978797;28;20194;-83
2022/08/23 07:30:04;;;;;;;3.45;2.15;;;21.50;94.00;;;;;;4978059;28;20186;-81
2022/08/23 07:32:32;;;;;;;3.58;2.30;;;21.70;94.10;;;;;;4978261;28;20179;-84
2022/08/23 07:34:57;;;;;;;3.53;2.05;;;21.70;94.00;;;;;;4993712;28;20210;-82
2022/08/23 07:37:23;;;;;;;6.18;2.20;;;21.80;94.00;;;;;;4977591;28;20200;-83
2022/08/23 07:39:49;;;;;;;2.70;1.98;;;21.90;93.90;;;;;;4975883;28;20206;-82
2022/08/23 07:42:19;;;;;;;2.78;1.90;;;22.00;93.80;;;;;;4977350;28;20238;-82
2022/08/23 07:44:50;;;;;;;3.15;2.20;;;22.10;93.70;;;;;;4973463;28;20201;-82
2022/08/23 07:47:15;;;;;;;2.35;2.05;;;22.20;93.60;;;;;;4978295;28;20172;-82
2022/08/23 07:49:43;;;;;;;3.72;2.20;;;22.20;93.50;;;;;;4993686;28;20211;-81
2022/08/23 07:52:09;;;;;;;4.95;2.58;;;22.30;93.50;;;;;;4982132;28;20176;-81
2022/08/23 07:54:34;;;;;;;2.38;1.95;;;22.30;93.40;;;;;;4977669;28;20246;-81
2022/08/23 07:57:00;;;;;;;5.05;2.00;;;22.40;93.40;;;;;;4995356;28;20229;-80
2022/08/23 07:59:26;;;;;;;4.05;1.88;;;22.40;93.40;;;;;;4993581;28;20192;-81
2022/08/23 08:01:52;;;;;;;4.03;2.60;;;22.50;93.40;;;;;;4969718;28;20176;-81
2022/08/23 08:04:17;;;;;;;3.95;1.98;;;22.60;93.50;;;;;;4977738;28;20216;-82
2022/08/23 08:06:47;;;;;;;3.35;2.33;;;22.70;93.40;;;;;;4977556;28;20188;-80
2022/08/23 08:09:18;;;;;;;2.80;1.92;;;22.80;93.30;;;;;;4977847;28;20254;-82
2022/08/23 08:11:51;;;;;;;3.75;2.20;;;22.90;93.20;;;;;;4976800;28;20192;-81
2022/08/23 08:14:19;;;;;;;8.80;2.47;;;23.00;93.10;;;;;;4976957;28;20286;-81
2022/08/23 08:16:47;;;;;;;3.13;2.08;;;23.10;93.00;;;;;;4977362;28;20180;-82
2022/08/23 08:19:15;;;;;;;3.17;1.85;;;23.20;92.80;;;;;;4977632;28;20196;-81
2022/08/23 08:21:44;;;;;;;4.45;2.28;;;23.30;92.80;;;;;;4990581;28;20201;-81
2022/08/23 08:24:12;;;;;;;2.13;1.70;;;23.50;92.70;;;;;;4972409;28;20180;-81
2022/08/23 08:26:39;;;;;;;2.92;2.10;;;23.60;92.60;;;;;;4993881;28;20202;-81
2022/08/23 08:29:05;;;;;;;2.65;2.00;;;23.70;92.50;;;;;;4972929;28;20210;-82
2022/08/23 08:31:31;;;;;;;3.25;1.90;;;23.80;92.40;;;;;;4977130;28;20319;-82
2022/08/23 08:33:57;;;;;;;3.88;1.75;;;23.90;92.30;;;;;;4990383;28;20275;-81
2022/08/23 08:36:36;;;;;;;5.38;2.05;;;24.00;92.10;;;;;;4967774;28;20175;-81
2022/08/23 08:39:05;;;;;;;3.58;1.98;;;24.20;91.70;;;;;;4992242;28;20194;-81
2022/08/23 08:41:34;;;;;;;2.40;1.70;;;24.30;91.90;;;;;;4977698;28;20218;-82
2022/08/23 08:44:02;;;;;;;3.20;1.90;;;24.40;91.70;;;;;;4976843;28;20176;-82
2022/08/23 08:46:53;;;;;;;3.55;1.80;;;24.50;91.60;;;;;;4976096;28;20199;-83
2022/08/23 08:49:31;;;;;;;4.43;1.90;;;24.60;91.20;;;;;;4977172;28;20234;-83
2022/08/23 08:52:23;;;;;;;3.22;1.75;;;24.70;91.10;;;;;;4976636;28;20203;-85
2022/08/23 08:54:59;;;;;;;4.07;1.80;;;24.70;91.00;;;;;;4982868;28;20238;-84
2022/08/23 08:57:25;;;;;;;2.90;1.83;;;24.90;91.10;;;;;;4982800;28;20278;-81
2022/08/23 09:00:10;;;;;;;3.50;1.80;;;24.90;91.00;;;;;;4979825;28;20216;-81
2022/08/23 09:02:39;;;;;;;3.35;1.80;;;25.00;90.60;;;;;;4976021;28;20242;-81
2022/08/23 09:05:12;;;;;;;2.90;1.65;;;25.10;90.90;;;;;;4979841;28;20211;-80
2022/08/23 09:07:50;;;;;;;3.97;1.50;;;25.20;90.50;;;;;;4976155;28;20186;-81
2022/08/23 09:10:27;;;;;;;3.78;1.70;;;25.40;90.70;;;;;;4976810;28;20318;-82
2022/08/23 09:13:12;;;;;;;4.80;1.70;;;25.40;90.50;;;;;;4977912;28;20187;-80
2022/08/23 09:15:54;;;;;;;5.80;1.80;;;25.50;90.30;;;;;;4981284;28;20231;-82
2022/08/23 09:18:23;;;;;;;5.90;2.10;;;25.60;89.30;;;;;;4983474;28;20184;-81
2022/08/23 09:20:53;;;;;;;3.63;2.00;;;25.70;89.70;;;;;;4979505;28;20204;-79
2022/08/23 09:23:28;;;;;;;3.00;1.67;;;25.80;89.40;;;;;;4977908;28;20200;-80
2022/08/23 09:25:59;;;;;;;6.20;2.00;;;25.90;88.90;;;;;;4987753;28;20198;-81
2022/08/23 09:28:31;;;;;;;3.85;1.88;;;26.00;89.20;;;;;;4964007;28;20172;-82
2022/08/23 09:31:01;;;;;;;3.70;1.90;;;26.10;88.90;;;;;;5001143;28;20222;-83
2022/08/23 09:33:44;;;;;;;2.33;1.70;;;26.20;89.70;;;;;;5006177;28;20200;-82
2022/08/23 09:36:24;;;;;;;2.53;1.70;;;26.30;87.70;;;;;;4963269;28;20191;-85
2022/08/23 09:39:03;;;;;;;3.67;1.95;;;26.50;88.20;;;;;;4968713;28;20210;-83
2022/08/23 09:41:35;;;;;;;3.15;1.75;;;26.60;87.00;;;;;;4994157;28;20235;-86
2022/08/23 09:44:07;;;;;;;3.08;1.80;;;26.70;87.00;;;;;;4965825;28;20263;-75
2022/08/23 09:46:37;;;;;;;2.80;1.67;;;26.90;87.40;;;;;;4978713;28;20180;-74
2022/08/23 09:49:26;;;;;;;2.42;1.80;;;27.00;87.00;;;;;;4976429;28;20190;-74
2022/08/23 09:51:58;;;;;;;3.25;1.80;;;27.20;85.70;;;;;;4976768;28;20202;-74
2022/08/23 09:54:29;;;;;;;2.33;1.80;;;27.30;86.30;;;;;;4992302;28;20182;-75
2022/08/23 09:56:59;;;;;;;3.17;2.08;;;27.40;86.10;;;;;;4975624;28;20208;-73
2022/08/23 09:59:24;;;;;;;3.25;1.80;;;27.50;85.10;;;;;;4974731;28;20263;-75
2022/08/23 10:01:52;;;;;;;3.28;2.03;;;27.70;84.40;;;;;;4991233;28;20200;-73
2022/08/23 10:04:28;;;;;;;2.30;1.77;;;27.80;84.20;;;;;;4986379;28;20208;-74
2022/08/23 10:06:54;;;;;;;3.65;1.92;;;27.90;83.20;;;;;;4963842;28;20241;-75
2022/08/23 10:09:31;;;;;;;4.43;1.73;;;28.10;83.90;;;;;;4975709;28;20274;-74
2022/08/23 10:12:01;;;;;;;3.03;2.13;;;28.30;81.60;;;;;;4976425;28;20195;-74
2022/08/23 10:14:29;;;;;;;4.95;1.90;;;28.80;81.90;;;;;;4975166;28;20204;-75
2022/08/23 10:17:11;;;;;;;2.65;1.70;;;29.40;80.30;;;;;;4975914;28;20180;-75
2022/08/23 10:19:40;;;;;;;2.83;1.80;;;30.00;75.30;;;;;;4975132;28;20208;-73
2022/08/23 10:22:20;;;;;;;2.78;1.58;;;30.50;76.90;;;;;;4975904;28;20187;-75
2022/08/23 10:24:45;;;;;;;2.63;2.08;;;31.00;72.90;;;;;;4960827;28;20219;-74
2022/08/23 10:30:58;;;;;;;3.72;1.80;;;31.90;70.70;;;;;;4962219;28;20184;-74
2022/08/23 10:33:26;;;;;;;3.35;1.58;;;32.40;69.80;;;;;;4991556;28;20184;-76
2022/08/23 10:35:59;;;;;;;3.28;2.03;;;32.70;70.90;;;;;;4975395;28;20188;-76
2022/08/23 10:38:31;;;;;;;3.53;1.52;;;33.00;67.20;;;;;;4976359;28;20282;-76
2022/08/23 10:41:24;;;;;;;2.10;1.50;;;33.30;67.10;;;;;;4991930;28;20270;-75
2022/08/23 10:43:53;;;;;;;4.50;1.77;;;33.60;66.00;;;;;;4969825;28;20278;-75
2022/08/23 10:46:23;;;;;;;3.90;1.73;;;33.90;67.00;;;;;;4959426;28;20180;-74
2022/08/23 10:48:52;;;;;;;3.45;1.63;;;34.10;65.10;;;;;;4965288;28;20290;-75
2022/08/23 10:51:29;;;;;;;2.33;1.60;;;34.30;65.30;;;;;;4965940;28;20180;-75
2022/08/23 10:54:12;;;;;;;2.65;1.70;;;34.50;63.60;;;;;;4963605;28;20222;-75
2022/08/23 10:56:38;;;;;;;3.08;1.90;;;34.70;61.20;;;;;;4976301;28;20176;-74
2022/08/23 10:59:07;;;;;;;6.45;1.92;;;34.80;62.70;;;;;;4979501;28;20200;-74
2022/08/23 11:01:44;;;;;;;2.65;1.50;;;34.90;60.60;;;;;;4964780;28;20257;-76
2022/08/23 11:04:34;;;;;;;2.03;1.55;;;35.00;59.00;;;;;;4975663;28;20184;-75
2022/08/23 11:07:13;;;;;;;3.78;1.95;;;35.10;58.70;;;;;;4974805;28;20199;-76
2022/08/23 11:09:54;;;;;;;3.05;1.75;;;35.10;59.80;;;;;;4978301;28;20175;-75
2022/08/23 11:12:33;;;;;;;2.90;1.80;;;35.20;58.20;;;;;;4994179;28;20210;-74
2022/08/23 11:15:05;;;;;;;3.97;1.80;;;35.20;57.80;;;;;;4978726;28;20182;-75
2022/08/23 11:17:42;;;;;;;2.35;1.30;;;35.20;58.00;;;;;;4976979;28;20208;-75
2022/08/23 11:20:11;;;;;;;2.30;1.60;;;35.30;57.40;;;;;;4978124;28;20187;-74
2022/08/23 11:22:55;;;;;;;3.95;1.70;;;35.30;58.30;;;;;;4978373;28;20179;-75
2022/08/23 11:25:23;;;;;;;3.15;1.58;;;35.40;55.80;;;;;;4980582;28;20171;-75
2022/08/23 11:28:11;;;;;;;2.35;1.60;;;35.50;57.90;;;;;;4980845;28;20249;-76
2022/08/23 11:30:56;;;;;;;1.83;1.23;;;35.50;57.40;;;;;;4992031;28;20191;-76
2022/08/23 11:33:27;;;;;;;3.15;1.60;;;35.50;56.00;;;;;;4971181;28;20179;-76
2022/08/23 11:36:15;;;;;;;2.60;1.38;;;35.60;57.10;;;;;;4993825;28;20204;-75
2022/08/23 11:38:49;;;;;;;2.17;1.50;;;35.70;55.20;;;;;;4977773;28;20263;-75
2022/08/23 11:41:17;;;;;;;3.47;1.48;;;35.70;55.00;;;;;;4980099;28;20211;-76
2022/08/23 11:43:46;;;;;;;2.28;1.30;;;35.70;55.00;;;;;;4979595;28;20193;-75
2022/08/23 11:46:27;;;;;;;3.03;1.50;;;35.70;55.10;;;;;;4996268;28;20179;-75
2022/08/23 11:48:55;;;;;;;2.40;1.40;;;35.70;53.00;;;;;;4978161;28;20190;-75
2022/08/23 11:51:48;;;;;;;2.10;1.30;;;35.70;54.60;;;;;;4977997;28;20185;-76
2022/08/23 11:54:26;;;;;;;4.60;1.58;;;35.60;53.20;;;;;;4978249;28;20184;-76
2022/08/23 11:57:03;;;;;;;3.50;1.33;;;35.60;52.90;;;;;;4969533;28;20173;-76
2022/08/23 11:59:48;;;;;;;4.78;1.67;;;35.60;52.80;;;;;;4977333;28;20234;-75
2022/08/23 12:02:38;;;;;;;2.53;1.50;;;35.60;52.70;;;;;;4992189;28;20194;-75
2022/08/23 12:05:31;;;;;;;2.13;1.50;;;35.60;51.90;;;;;;4976909;28;20195;-76
2022/08/23 12:08:03;;;;;;;2.33;1.38;;;35.50;50.50;;;;;;4961838;28;20171;-75
2022/08/23 12:10:40;;;;;;;2.05;1.63;;;35.20;51.70;;;;;;4974755;28;20199;-74
2022/08/23 12:13:18;;;;;;;1.85;1.52;;;35.00;51.00;;;;;;4961357;28;20195;-74
2022/08/23 12:16:04;;;;;;;2.70;1.90;;;34.60;51.10;;;;;;4977172;28;20265;-75
2022/08/23 12:18:37;;;;;;;1.75;1.30;;;34.40;51.30;;;;;;4993765;28;20195;-74
2022/08/23 12:21:07;;;;;;;3.33;1.67;;;34.30;51.70;;;;;;4980699;28;20263;-76
2022/08/23 12:23:44;;;;;;;2.63;1.60;;;34.30;51.80;;;;;;4977800;28;20171;-75
2022/08/23 12:26:24;;;;;;;2.30;1.70;;;34.40;50.80;;;;;;4974067;28;20176;-75
2022/08/23 12:28:56;;;;;;;1.40;1.30;;;34.60;51.60;;;;;;4986877;28;20203;-75
2022/08/23 12:31:39;;;;;;;3.50;1.40;;;34.70;51.70;;;;;;4976849;28;20230;-75
2022/08/23 12:34:16;;;;;;;1.52;1.42;;;34.70;51.30;;;;;;4977260;28;20215;-75
2022/08/23 12:36:54;;;;;;;1.77;1.40;;;34.70;50.80;;;;;;4979028;28;20265;-72
2022/08/23 12:39:35;;;;;;;2.10;1.40;;;34.70;51.00;;;;;;4986708;28;20210;-76
2022/08/23 12:42:19;;;;;;;1.73;1.30;;;34.60;50.70;;;;;;4977341;28;20179;-73
2022/08/23 12:44:58;;;;;;;2.00;1.50;;;34.60;50.70;;;;;;4957538;28;20203;-74
2022/08/23 12:47:26;;;;;;;3.03;1.50;;;34.60;50.80;;;;;;4992549;28;20186;-74
2022/08/23 12:50:12;;;;;;;2.13;1.40;;;34.50;51.10;;;;;;4978186;28;20194;-75
2022/08/23 12:52:54;;;;;;;2.00;1.27;;;34.60;50.20;;;;;;4977737;28;20201;-75
2022/08/23 12:55:25;;;;;;;1.77;1.40;;;34.60;50.80;;;;;;4981027;28;20234;-75
2022/08/23 12:57:54;;;;;;;2.30;1.33;;;34.60;50.20;;;;;;4982058;28;20199;-72
2022/08/23 13:00:25;;;;;;;1.83;1.42;;;34.50;50.00;;;;;;4981917;28;20199;-74
2022/08/23 13:02:57;;;;;;;2.45;1.50;;;34.40;50.10;;;;;;4976035;28;20273;-75
2022/08/23 13:05:33;;;;;;;2.50;1.48;;;34.40;49.90;;;;;;4992553;28;20179;-75
2022/08/23 13:08:06;;;;;;;2.50;1.60;;;34.40;49.90;;;;;;4961119;28;20291;-75
2022/08/23 13:10:32;;;;;;;2.33;1.45;;;34.40;49.80;;;;;;4973293;28;20215;-74
2022/08/23 13:12:59;;;;;;;2.20;1.73;;;34.40;49.80;;;;;;4973067;28;20204;-75
2022/08/23 13:15:52;;;;;;;2.35;1.73;;;34.30;49.90;;;;;;4973552;28;20215;-75
2022/08/23 13:18:26;;;;;;;1.95;1.20;;;34.30;49.10;;;;;;4973542;28;20212;-74
2022/08/23 13:21:15;;;;;;;2.38;1.50;;;34.40;49.90;;;;;;4975849;28;20222;-75